Wednesday, October 01, 2014
06:03 UTC
  |  Log In   |  Register Free
Airport Search:

Teterboro Airport
(KTEB)

Airport information sponsored by:
Landmark Aviation - TEB at Teterboro (KTEB), Teterboro, NJ
FAA data valid effective September 18, 2014 - November 13, 2014 (unless otherwise noted).

 
 
 
 
 
 
 
 
 
 
 
 
 
 

Current Aviation Weather for Teterboro Airport (KTEB)

The most recent METAR observation for KTEB was updated at: 0523
METAR Summary (Translated METAR)
KTEB
010451Z 03007KT 10SM BKN016 OVC023 17/13 A2998 RMK AO2 SLP151 T01720133 402390172 $
KLGA
010451Z 06011KT 10SM OVC007 17/15 A2998 RMK AO2 RAE31 CIG 006V010 SLP153 P0003 T01670150 402170167
(9.6 nm SE from KTEB)
KCDW
010453Z AUTO 06006KT 10SM BKN015 17/13 A3000 RMK AO2 SLP162 T01670128 402170161 TSNO
(10.1 nm NW from KTEB)
TAF Summary (Translated TAF)
KTEB
010241Z 0103/0124 04006KT P6SM SCT015 BKN025 OVC060 TEMPO 0104/0108 BKN015 FM010800 02008KT P6SM OVC015 FM011600 01010G16KT P6SM -SHRA SCT015 BKN025 FM012300 01008KT P6SM OVC012
KLGA
(9.6 nm SE from KTEB)
010241Z 0103/0124 05012KT P6SM SCT015 BKN025 OVC060 TEMPO 0103/0106 BKN015 FM010600 02012KT P6SM OVC015 FM011600 02014G20KT 6SM -SHRA SCT015 BKN025
  Airport Weather Conditions for KTEB

 Current Weather at TEB
63° F
Overcast
Northeast winds at 8.1 mph
TEB NOAA Radar

Pressure: 29.98 in
Humidity: 78%
Wind: Northeast at 8.1 MPH (7 KT)
Dew Point: 55.9°F
Visibility: 10.00 mi


Airport Weather Forecast for KTEB

Translated METAR and TAF for KTEB
Translated METAR for KTEB (0558 UTC 01 October 2014)
found at http://aviationweather.gov/adds/metars/
 
METAR text: KTEB 010551Z 03004KT 10SM OVC016 17/13 A2999 RMK AO2 SLP154 T01720133 10189 20172 55000 $
Conditions at: KTEB (TETERBORO , NJ, US) observed 0551 UTC 01 October 2014
Temperature: 17.2°C (63°F)
Dewpoint: 13.3°C (56°F) [RH = 78%]
Pressure (altimeter): 29.99 inches Hg (1015.7 mb)
[Sea-level pressure: 1015.4 mb]
Winds: from the NNE (30 degrees) at 5 MPH (4 knots; 2.1 m/s)
Visibility: 10 or more miles (16+ km)
Ceiling: 1600 feet AGL
Clouds: overcast cloud deck at 1600 feet AGL
Weather:
SOME DATA ABOVE MAY BE INACCURATE!!!
"$" is an indication the sensor requires maintenance
Translated TAF for KTEB
Forecast for: KTEB (TETERBORO , NJ, US)
TAF Text: KTEB 010538Z 0106/0206 03007KT P6SM OVC015
Forecast period: 0600 to 1700 UTC 01 October 2014
Forecast type: FROM: standard forecast or significant change
Winds: from the NNE (30 degrees) at 8 MPH (7 knots; 3.6 m/s)
Visibility: 6 or more miles (10+ km)
Ceiling: 1500 feet AGL
Clouds: overcast cloud deck at 1500 feet AGL
Weather: no significant weather forecast for this period
TAF Text: FM011700 02010KT P6SM SCT015 OVC050
Forecast period: 1700 UTC 01 October 2014 to 0200 UTC 02 October 2014
Forecast type: FROM: standard forecast or significant change
Winds: from the NNE (20 degrees) at 12 MPH (10 knots; 5.2 m/s)
Visibility: 6 or more miles (10+ km)
Ceiling: 5000 feet AGL
Clouds: scattered clouds at 1500 feet AGL
overcast cloud deck at 5000 feet AGL
Weather: no significant weather forecast for this period
TAF Text: FM020200 01008KT P6SM OVC012
Forecast period: 0200 to 0600 UTC 02 October 2014
Forecast type: FROM: standard forecast or significant change
Winds: from the N (10 degrees) at 9 MPH (8 knots; 4.2 m/s)
Visibility: 6 or more miles (10+ km)
Ceiling: 1200 feet AGL
Clouds: overcast cloud deck at 1200 feet AGL
Weather: no significant weather forecast for this period

Find All Airport Services Find A Hotel Find A Rental Car Find A Golf Course Find A Restaurant $100 Hamburger



FBO's on the Field
FBO Company Facility Photos Services Transportation Aviation Fuel Prices: Prices include tax
Catering Weather Repair Courtesy Rental Type 100LL JetA JetA+ MOGAS 8087
 
Landmark Aviation - TEB

Landmark Aviation - TEB logo
Currently rated 4.2 by 5 people
FS:
Last Updated: Sep-30
Login to update fuel prices
SS:
Contact Landmark Aviation - TEBMore FBO Information
 
Atlantic Aviation

Currently rated 4 by 1 person
FS:Texaco
Last Updated: Sep-30
Login to update fuel prices
SS:
Contact Atlantic AviationMore FBO Information
 
Jet Aviation

Currently rated 4.7 by 3 people
FS:Phillips66
Last Updated: Sep-16
Login to update fuel prices
SS:
Contact Jet AviationMore FBO Information
 
Meridian Teterboro

Currently rated 4.2 by 3 people
FS:Shell
Last Updated: Sep-04
Login to update fuel prices
SS:
Contact Meridian TeterboroMore FBO Information
 
Signature Flight Support

Currently rated 3.4 by 1 person
FS:Independent
Last Updated: Sep-30
Login to update fuel prices
SS:
Contact Signature Flight SupportMore FBO Information
 
Add another FBO Facility Photos Catering Weather Repair Courtesy Rental Type 100LL JetA JetA+ MOGAS 8087
Services Transportation Aviation Fuel Prices: Prices include tax


model-print
model-print
model-print
model-print